This is the latest recevied weather packets stored in our database for station/object YO8SSH-13. If no packets are shown the sender has not sent any weather packets the latest 10 day(s).
| Time | Temp. | Humidity | Pressure | Rain* | Wind** | Luminosity | Snow |
|---|---|---|---|---|---|---|---|
| 1778049327 | 22.22° C | 44% | 1010 hPa | 0 mm | - | - | - |
| 1778048427 | 21.11° C | 45% | 1011 hPa | 0 mm | - | - | - |
| 1778047526 | 20° C | 47% | 1010 hPa | 0 mm | - | - | - |
| 1778046627 | 18.89° C | 49% | 1011 hPa | 0 mm | - | - | - |
| 1778045726 | 17.78° C | 54% | 1011 hPa | 0 mm | - | - | - |
| 1778044827 | 16.11° C | 56% | 1011 hPa | 0 mm | - | - | - |
| 1778043926 | 14.44° C | 60% | 1011 hPa | 0 mm | - | - | - |
| 1778043027 | 12.22° C | 61% | 1010 hPa | 0 mm | - | - | - |
| 1778042126 | 11.67° C | 60% | 1010 hPa | 0 mm | - | - | - |
| 1778041229 | 11.11° C | 61% | 1010 hPa | 0 mm | - | - | - |
| 1778040327 | 10.56° C | 61% | 1010 hPa | 0 mm | - | - | - |
| 1778039426 | 10° C | 61% | 1010 hPa | 0 mm | - | - | - |
| 1778038527 | 10° C | 62% | 1010 hPa | 0 mm | - | - | - |
| 1778037626 | 10° C | 61% | 1010 hPa | 0 mm | - | - | - |
| 1778036727 | 10° C | 61% | 1010 hPa | 0 mm | - | - | - |
| 1778035826 | 10° C | 60% | 1010 hPa | 0 mm | - | - | - |
| 1778034926 | 10° C | 60% | 1010 hPa | 0 mm | - | - | - |
| 1778034026 | 10° C | 60% | 1010 hPa | 0 mm | - | - | - |
| 1778033127 | 10.56° C | 60% | 1010 hPa | 0 mm | - | - | - |
| 1778032226 | 10.56° C | 59% | 1010 hPa | 0 mm | - | - | - |
| 1778031327 | 11.11° C | 58% | 1010 hPa | 0 mm | - | - | - |
| 1778030426 | 11.11° C | 57% | 1010 hPa | 0 mm | - | - | - |
| 1778029526 | 11.11° C | 57% | 1010 hPa | 0 mm | - | - | - |
| 1778028627 | 11.67° C | 57% | 1010 hPa | 0 mm | - | - | - |
| 1778027726 | 11.67° C | 56% | 1010 hPa | 0 mm | - | - | - |
* Rain latest hour (hover to see other rain measurements)
** Current wind speed in m/s (hover to see current wind gust speed)